Time;durP1;ratioP1;P1;durP2;ratioP2;P2;SDS_P1;SDS_P2;PMS_P1;PMS_P2;Temp;Humidity;BMP_temperature;BMP_pressure;BME280_temperature;BME280_humidity;BME280_pressure;Samples;Min_cycle;Max_cycle;Signal;HPM_P1;HPM_P2
2021/12/19 00:00:38;;;;;;;48.50;16.13;;;;;;;13.54;100.00;103512.56;5095940;28;19912;-50
2021/12/19 00:03:31;;;;;;;49.13;16.37;;;;;;;13.27;100.00;103514.22;5095952;28;20096;-51
2021/12/19 00:08:51;;;;;;;46.58;15.20;;;;;;;13.60;100.00;103506.59;5095523;28;20059;-50
2021/12/19 00:11:29;;;;;;;47.33;14.57;;;;;;;13.66;100.00;103501.63;5095797;28;20113;-48
2021/12/19 00:13:56;;;;;;;57.03;17.27;;;;;;;13.40;100.00;103505.00;5077278;28;20075;-49
2021/12/19 00:16:22;;;;;;;54.25;17.15;;;;;;;13.34;100.00;103504.56;5094990;28;20081;-46
2021/12/19 00:18:50;;;;;;;50.25;15.43;;;;;;;13.31;100.00;103495.97;5077382;28;20043;-48
2021/12/19 00:21:17;;;;;;;54.65;17.80;;;;;;;13.13;100.00;103494.06;5095634;28;20028;-50
2021/12/19 00:23:44;;;;;;;50.92;16.38;;;;;;;13.25;100.00;103489.34;5095010;28;20473;-48
2021/12/19 00:26:11;;;;;;;55.92;16.08;;;;;;;13.36;100.00;103492.81;5094850;28;20024;-50
2021/12/19 00:28:36;;;;;;;;;;;;;;;13.20;100.00;103487.09;5094563;28;20035;-47
2021/12/19 00:31:03;;;;;;;52.30;16.03;;;;;;;13.28;100.00;103491.72;5094834;28;19912;-48
2021/12/19 00:33:29;;;;;;;54.20;16.70;;;;;;;13.34;100.00;103488.44;5094446;28;20062;-49
2021/12/19 00:35:54;;;;;;;50.72;14.85;;;;;;;13.43;100.00;103485.91;5094835;28;20056;-50
2021/12/19 00:38:20;;;;;;;43.33;14.30;;;;;;;13.24;100.00;103484.97;5076295;28;20032;-47
2021/12/19 00:40:46;;;;;;;52.65;17.42;;;;;;;13.39;100.00;103489.88;5094800;28;20104;-48
2021/12/19 00:43:23;;;;;;;42.93;15.87;;;;;;;13.29;100.00;103481.84;5095001;28;20443;-53
2021/12/19 00:45:50;;;;;;;56.65;15.95;;;;;;;13.51;100.00;103482.47;5078267;28;20285;-52
2021/12/19 00:48:16;;;;;;;68.05;20.65;;;;;;;13.10;100.00;103470.19;5094912;28;20039;-53
2021/12/19 00:50:42;;;;;;;61.58;19.77;;;;;;;13.10;100.00;103477.38;5094388;28;20441;-53
2021/12/19 00:53:09;;;;;;;67.90;19.80;;;;;;;13.33;100.00;103476.00;5076303;28;20153;-52
2021/12/19 00:55:35;;;;;;;57.97;18.40;;;;;;;12.32;100.00;103471.22;5060764;28;20028;-48
2021/12/19 00:58:01;;;;;;;55.28;21.95;;;;;;;13.13;100.00;103464.50;5094573;28;20032;-52
2021/12/19 01:00:31;;;;;;;55.83;20.08;;;;;;;13.02;100.00;103476.28;5094305;28;20039;-52
2021/12/19 01:02:59;;;;;;;52.28;19.98;;;;;;;12.66;100.00;103473.41;5094348;28;20032;-54
2021/12/19 01:05:30;;;;;;;55.80;19.83;;;;;;;12.99;100.00;103465.84;5077006;28;20166;-53
2021/12/19 01:07:57;;;;;;;49.80;18.00;;;;;;;12.73;100.00;103469.19;5094794;28;20040;-50
2021/12/19 01:10:23;;;;;;;;;;;;;;;12.91;100.00;103468.41;5076553;28;20051;-49
2021/12/19 01:12:48;;;;;;;38.38;16.23;;;;;;;13.21;100.00;103461.09;5094397;28;19908;-50
2021/12/19 01:15:16;;;;;;;48.50;17.67;;;;;;;13.05;100.00;103457.19;5094130;28;20032;-48
2021/12/19 01:17:42;;;;;;;44.22;17.45;;;;;;;13.18;100.00;103456.00;5094346;28;20272;-52
2021/12/19 01:20:20;;;;;;;46.08;16.35;;;;;;;13.13;100.00;103459.13;5076200;28;20032;-49
2021/12/19 01:22:46;;;;;;;36.35;16.58;;;;;;;13.03;100.00;103459.19;5094624;28;20107;-51
2021/12/19 01:25:12;;;;;;;31.63;14.85;;;;;;;12.84;100.00;103453.88;5094806;28;20040;-50
2021/12/19 01:27:38;;;;;;;34.22;15.57;;;;;;;12.31;100.00;103451.56;5076446;28;20035;-49
2021/12/19 01:30:06;;;;;;;34.88;13.90;;;;;;;12.77;100.00;103454.47;5094117;28;20104;-52
2021/12/19 01:32:31;;;;;;;31.80;13.40;;;;;;;12.76;100.00;103452.78;5094299;28;20469;-52
2021/12/19 01:34:57;;;;;;;32.87;13.57;;;;;;;13.00;100.00;103458.63;5094907;28;20149;-56
2021/12/19 01:37:22;;;;;;;32.95;14.60;;;;;;;13.05;100.00;103449.13;5076194;28;20047;-53
2021/12/19 01:39:48;;;;;;;39.17;14.53;;;;;;;12.90;100.00;103454.13;5094071;28;20118;-53
2021/12/19 01:42:13;;;;;;;33.73;13.93;;;;;;;12.75;100.00;103451.09;5094141;28;20032;-53
2021/12/19 01:44:39;;;;;;;37.80;16.30;;;;;;;13.15;100.00;103450.94;5074893;28;20574;-53
2021/12/19 01:47:05;;;;;;;38.80;15.13;;;;;;;12.94;100.00;103452.00;5075958;28;20051;-50
2021/12/19 01:49:31;;;;;;;30.52;13.77;;;;;;;13.14;100.00;103463.50;5094129;28;20048;-54
2021/12/19 01:51:57;;;;;;;29.63;12.65;;;;;;;12.67;100.00;103444.75;5093954;28;20032;-53
2021/12/19 01:54:23;;;;;;;;;;;;;;;12.46;100.00;103449.31;5094459;28;20043;-49
2021/12/19 01:56:49;;;;;;;32.33;10.10;;;;;;;12.60;100.00;103444.47;5093926;28;19916;-49
2021/12/19 01:59:15;;;;;;;;;;;;;;;12.13;100.00;103440.72;5094157;28;20411;-48
2021/12/19 02:01:49;;;;;;;21.80;9.13;;;;;;;12.14;100.00;103439.72;5093971;28;19941;-47
2021/12/19 02:04:17;;;;;;;29.02;10.10;;;;;;;12.13;100.00;103437.22;5075619;28;20032;-54
2021/12/19 02:06:43;;;;;;;27.83;10.23;;;;;;;12.43;100.00;103436.16;5093333;28;20047;-52
2021/12/19 02:09:10;;;;;;;25.33;9.15;;;;;;;12.22;100.00;103435.47;5059050;28;20032;-50
2021/12/19 02:11:38;;;;;;;20.38;8.02;;;;;;;12.33;100.00;103425.44;5059193;28;20039;-49
2021/12/19 02:14:04;;;;;;;25.02;8.70;;;;;;;12.71;100.00;103430.03;5075495;28;20067;-54
2021/12/19 02:16:30;;;;;;;21.38;7.82;;;;;;;12.86;100.00;103422.34;5093865;28;20036;-49
2021/12/19 02:18:57;;;;;;;16.80;6.68;;;;;;;12.50;100.00;103424.88;5093380;28;20035;-48
2021/12/19 02:21:23;;;;;;;20.73;7.28;;;;;;;12.46;100.00;103414.44;5075098;28;20044;-49
2021/12/19 02:23:49;;;;;;;18.52;6.32;;;;;;;12.30;100.00;103417.69;5058719;28;20032;-49
2021/12/19 02:26:15;;;;;;;14.63;5.85;;;;;;;12.46;100.00;103408.19;5093096;28;20032;-49
2021/12/19 02:28:41;;;;;;;;;;;;;;;12.56;100.00;103409.00;5075758;28;20071;-50
2021/12/19 02:31:07;;;;;;;16.87;6.57;;;;;;;12.16;100.00;103402.88;5093094;28;19911;-50
2021/12/19 02:33:37;;;;;;;18.95;5.97;;;;;;;12.10;100.00;103387.38;5092903;28;20488;-53
2021/12/19 02:49:21;;;;;;;15.82;5.78;;;;;;;12.17;100.00;103387.66;5093736;28;20369;-50
2021/12/19 02:51:47;;;;;;;18.98;6.25;;;;;;;11.71;100.00;103392.69;5075742;28;20020;-52
2021/12/19 02:54:12;;;;;;;18.90;6.25;;;;;;;12.47;100.00;103385.75;5093244;28;20062;-52
2021/12/19 02:56:38;;;;;;;21.33;6.93;;;;;;;12.44;100.00;103381.50;5096518;28;20032;-53
2021/12/19 02:59:03;;;;;;;19.10;6.00;;;;;;;12.25;100.00;103374.34;5078862;28;20359;-54
2021/12/19 03:01:30;;;;;;;18.23;6.72;;;;;;;12.46;100.00;103376.84;5078706;28;20453;-52
2021/12/19 03:03:55;;;;;;;;;;;;;;;12.23;100.00;103375.50;5097884;28;20105;-52
2021/12/19 03:06:21;;;;;;;17.90;6.70;;;;;;;12.53;100.00;103373.56;5096502;28;20337;-53
2021/12/19 03:08:49;;;;;;;19.92;6.57;;;;;;;12.62;100.00;103370.00;5096527;28;20048;-51
2021/12/19 03:11:49;;;;;;;24.48;7.60;;;;;;;12.43;100.00;103369.06;5096707;28;20035;-54
2021/12/19 03:19:29;;;;;;;20.67;7.20;;;;;;;12.50;100.00;103357.78;5096759;28;20051;-54
2021/12/19 03:21:55;;;;;;;18.02;6.47;;;;;;;12.40;100.00;103366.69;5095749;28;20032;-50
2021/12/19 03:24:20;;;;;;;29.50;7.67;;;;;;;12.35;100.00;103368.13;5096522;28;20377;-54
2021/12/19 03:26:46;;;;;;;17.10;6.33;;;;;;;12.33;100.00;103355.69;5096463;28;20264;-53
2021/12/19 03:29:11;;;;;;;24.60;7.00;;;;;;;12.35;100.00;103347.50;5078824;28;20358;-50
2021/12/19 03:31:37;;;;;;;21.33;6.78;;;;;;;12.62;100.00;103353.91;5078230;28;20533;-51
2021/12/19 03:34:03;;;;;;;26.17;6.85;;;;;;;12.28;100.00;103346.38;5077608;28;20426;-52
2021/12/19 03:36:28;;;;;;;23.60;7.40;;;;;;;12.46;100.00;103350.00;5077662;28;20031;-50
2021/12/19 03:38:58;;;;;;;19.13;6.57;;;;;;;12.59;100.00;103348.81;5077693;28;20656;-50
2021/12/19 03:41:33;;;;;;;19.05;7.25;;;;;;;12.60;100.00;103346.00;5096153;28;20722;-50
2021/12/19 03:44:03;;;;;;;21.05;6.68;;;;;;;12.81;100.00;103341.38;5095743;28;20081;-47
2021/12/19 03:46:29;;;;;;;22.73;7.20;;;;;;;12.71;100.00;103342.28;5078074;28;20047;-52
2021/12/19 03:48:54;;;;;;;21.42;7.32;;;;;;;12.43;100.00;103344.91;5096146;28;20086;-51
2021/12/19 03:51:20;;;;;;;24.33;6.73;;;;;;;12.57;100.00;103337.38;5077772;28;20435;-48
2021/12/19 03:53:46;;;;;;;18.27;5.70;;;;;;;12.47;100.00;103329.38;5095932;28;20032;-51
2021/12/19 03:56:11;;;;;;;18.20;6.23;;;;;;;12.40;100.00;103328.28;5096509;28;20077;-55
2021/12/19 03:58:37;;;;;;;15.97;5.70;;;;;;;12.40;100.00;103323.75;5078124;28;20462;-53
2021/12/19 04:01:06;;;;;;;21.07;6.10;;;;;;;12.48;100.00;103321.19;5095509;28;20048;-51
2021/12/19 04:03:31;;;;;;;21.15;6.22;;;;;;;12.82;100.00;103314.41;5077561;28;20265;-52
2021/12/19 04:05:57;;;;;;;17.13;5.40;;;;;;;12.44;100.00;103310.88;5095038;28;20054;-50
2021/12/19 04:08:23;;;;;;;17.23;5.53;;;;;;;12.29;100.00;103300.63;5076683;28;20300;-50
2021/12/19 04:10:50;;;;;;;19.60;6.40;;;;;;;12.50;100.00;103307.59;5095304;28;20036;-51
2021/12/19 04:13:17;;;;;;;20.63;6.38;;;;;;;12.56;100.00;103296.25;5095520;28;20507;-54
2021/12/19 04:15:42;;;;;;;13.68;5.72;;;;;;;12.88;100.00;103296.81;5095458;28;20477;-52
2021/12/19 04:18:08;;;;;;;17.43;5.00;;;;;;;12.14;100.00;103286.00;5095736;28;20039;-51
2021/12/19 04:20:34;;;;;;;19.07;6.20;;;;;;;12.36;100.00;103284.78;5095011;28;20801;-49
2021/12/19 04:22:59;;;;;;;17.55;5.22;;;;;;;12.60;100.00;103275.34;5095131;28;20381;-49
2021/12/19 04:25:25;;;;;;;15.95;5.00;;;;;;;12.79;100.00;103279.75;5095308;28;20381;-49
2021/12/19 04:27:51;;;;;;;16.98;5.15;;;;;;;12.59;100.00;103274.53;5095004;28;20376;-49
2021/12/19 04:30:24;;;;;;;15.10;4.13;;;;;;;12.23;100.00;103273.56;5077332;28;20081;-51
2021/12/19 04:32:59;;;;;;;14.07;4.55;;;;;;;12.28;100.00;103263.22;5094886;28;20036;-51
2021/12/19 04:35:31;;;;;;;17.30;4.60;;;;;;;12.64;100.00;103260.63;5094780;28;20040;-51
2021/12/19 04:40:32;;;;;;;16.67;4.72;;;;;;;12.78;100.00;103251.22;5094599;28;20466;-51
2021/12/19 04:54:15;;;;;;;18.10;5.18;;;;;;;12.50;100.00;103245.03;5094836;28;20047;-52
2021/12/19 04:57:04;;;;;;;11.52;4.35;;;;;;;12.40;100.00;103243.22;5079482;28;20050;-50
2021/12/19 05:02:28;;;;;;;16.33;4.95;;;;;;;13.04;100.00;103237.06;5079099;28;20036;-50
2021/12/19 05:15:52;;;;;;;15.85;4.10;;;;;;;12.89;100.00;103250.16;5076976;28;20475;-53
2021/12/19 05:18:19;;;;;;;11.25;4.05;;;;;;;13.09;100.00;103250.03;5094705;28;20047;-50
2021/12/19 05:21:01;;;;;;;13.07;4.65;;;;;;;13.06;100.00;103243.13;5094161;28;20044;-51
2021/12/19 05:24:05;;;;;;;16.90;4.55;;;;;;;12.41;100.00;103239.56;5077094;28;20149;-49
2021/12/19 05:26:14;;;;;;;18.20;5.88;;;;;;;12.47;100.00;103238.97;5093948;28;20093;-50
2021/12/19 05:28:39;;;;;;;;;;;;;;;12.77;100.00;103238.78;5043527;28;20050;-51
2021/12/19 05:31:05;;;;;;;15.53;6.20;;;;;;;12.98;100.00;103230.47;5094174;28;19998;-52
2021/12/19 05:33:31;;;;;;;17.52;6.25;;;;;;;12.66;100.00;103237.16;5076592;28;20079;-48
2021/12/19 05:46:49;;;;;;;23.02;6.88;;;;;;;12.77;100.00;103222.69;5093716;28;20048;-52
2021/12/19 05:49:15;;;;;;;24.03;7.17;;;;;;;12.45;100.00;103224.00;5059240;28;20040;-47
2021/12/19 05:51:40;;;;;;;21.23;7.43;;;;;;;12.52;100.00;103219.72;5093841;28;20457;-50
2021/12/19 05:54:08;;;;;;;22.87;6.67;;;;;;;12.34;100.00;103211.63;5075774;28;20028;-48
2021/12/19 05:56:33;;;;;;;20.65;6.38;;;;;;;12.66;100.00;103221.06;5093696;28;20477;-49
2021/12/19 05:58:59;;;;;;;19.73;5.63;;;;;;;12.48;100.00;103226.41;5075465;28;20037;-46
2021/12/19 06:01:24;;;;;;;21.75;6.95;;;;;;;12.80;100.00;103229.59;5093859;28;20036;-49
2021/12/19 06:03:50;;;;;;;22.53;6.60;;;;;;;13.09;100.00;103232.09;5093426;28;20032;-50
2021/12/19 06:06:15;;;;;;;24.47;6.70;;;;;;;12.72;100.00;103222.28;5093330;28;20032;-47
2021/12/19 06:08:41;;;;;;;20.77;7.03;;;;;;;13.05;100.00;103220.78;5093351;28;20027;-51
2021/12/19 06:11:07;;;;;;;25.90;6.03;;;;;;;12.84;100.00;103228.28;5093310;28;20454;-51
2021/12/19 06:13:32;;;;;;;23.90;6.27;;;;;;;13.03;100.00;103211.19;5075802;28;20382;-47
2021/12/19 06:15:58;;;;;;;26.85;6.80;;;;;;;13.27;100.00;103218.63;5093203;28;20089;-51
2021/12/19 06:18:24;;;;;;;23.27;6.40;;;;;;;13.22;100.00;103223.63;5093795;28;20028;-52
2021/12/19 06:20:50;;;;;;;23.30;7.60;;;;;;;13.24;100.00;103221.63;5093400;28;20032;-53
2021/12/19 06:23:16;;;;;;;18.60;7.03;;;;;;;13.39;100.00;103221.91;5093206;28;20359;-52
2021/12/19 06:25:45;;;;;;;22.42;7.93;;;;;;;13.20;100.00;103218.41;5093066;28;20478;-50
2021/12/19 06:28:15;;;;;;;22.88;7.70;;;;;;;13.36;100.00;103211.47;5093406;28;20036;-50
2021/12/19 06:30:41;;;;;;;26.33;9.52;;;;;;;13.13;100.00;103216.47;5077720;28;20051;-48
2021/12/19 06:33:06;;;;;;;26.95;8.82;;;;;;;13.35;100.00;103207.09;5097525;28;20330;-49
2021/12/19 06:35:32;;;;;;;21.30;8.40;;;;;;;13.42;100.00;103210.03;5097075;28;20036;-51
2021/12/19 06:37:58;;;;;;;23.45;9.40;;;;;;;13.12;100.00;103201.34;5097023;28;20032;-50
2021/12/19 06:40:24;;;;;;;23.50;8.10;;;;;;;13.38;100.00;103203.25;5063232;28;20074;-54
2021/12/19 06:42:50;;;;;;;25.40;9.20;;;;;;;13.38;100.00;103201.41;5079882;28;20044;-54
2021/12/19 06:45:17;;;;;;;21.73;9.23;;;;;;;12.95;100.00;103200.38;5079795;28;20032;-52
2021/12/19 06:47:43;;;;;;;23.70;8.38;;;;;;;13.24;100.00;103197.44;5096932;28;20047;-52
2021/12/19 06:50:10;;;;;;;23.83;7.70;;;;;;;13.20;100.00;103198.75;5097258;28;20036;-53
2021/12/19 06:52:37;;;;;;;24.70;9.35;;;;;;;13.14;100.00;103188.63;5097160;28;20043;-54
2021/12/19 06:55:03;;;;;;;21.13;7.72;;;;;;;13.49;100.00;103184.22;5062649;28;20123;-52
2021/12/19 06:57:29;;;;;;;22.57;8.93;;;;;;;13.16;100.00;103189.34;5061970;28;20068;-55
2021/12/19 06:59:55;;;;;;;24.33;9.60;;;;;;;13.35;100.00;103190.97;5096926;28;20108;-51
2021/12/19 07:02:20;;;;;;;30.50;10.02;;;;;;;13.51;100.00;103192.16;5062828;28;20361;-52
2021/12/19 07:04:46;;;;;;;36.20;12.13;;;;;;;13.45;100.00;103194.44;5097174;28;20047;-48
2021/12/19 07:07:12;;;;;;;32.35;11.65;;;;;;;13.54;100.00;103194.50;5061753;28;20039;-50
2021/12/19 07:09:38;;;;;;;29.75;12.73;;;;;;;13.60;100.00;103191.19;5079089;28;20130;-56
2021/12/19 07:12:06;;;;;;;26.45;11.23;;;;;;;13.68;100.00;103196.59;5078463;28;20032;-52
2021/12/19 07:14:31;;;;;;;38.30;14.95;;;;;;;13.54;100.00;103192.66;5078144;28;20036;-51
2021/12/19 07:16:57;;;;;;;37.83;15.97;;;;;;;13.53;100.00;103188.28;5096166;28;20480;-53
2021/12/19 07:19:22;;;;;;;38.33;15.65;;;;;;;13.46;100.00;103196.13;5095982;28;20273;-50
2021/12/19 07:21:48;;;;;;;37.97;14.63;;;;;;;13.69;100.00;103190.22;5096509;28;20040;-50
2021/12/19 07:24:14;;;;;;;40.80;16.05;;;;;;;13.75;100.00;103189.63;5096277;28;20020;-50
2021/12/19 07:26:39;;;;;;;47.60;16.75;;;;;;;13.61;100.00;103192.88;5078316;28;20032;-50
2021/12/19 07:29:05;;;;;;;33.27;14.23;;;;;;;13.55;100.00;103188.13;5078128;28;20453;-51
2021/12/19 07:31:31;;;;;;;42.58;16.67;;;;;;;13.54;100.00;103187.28;5078195;28;20487;-50
2021/12/19 07:33:57;;;;;;;46.80;16.83;;;;;;;13.39;100.00;103178.09;5096131;28;20036;-47
2021/12/19 07:36:26;;;;;;;38.45;15.38;;;;;;;13.40;100.00;103174.41;5077958;28;20492;-52
2021/12/19 07:39:06;;;;;;;40.80;16.65;;;;;;;13.68;100.00;103185.03;5096472;28;20477;-48
2021/12/19 07:41:31;;;;;;;32.63;15.13;;;;;;;13.48;100.00;103178.00;5094502;28;20028;-50
2021/12/19 07:43:57;;;;;;;39.80;15.90;;;;;;;13.38;100.00;103179.06;5078209;28;20031;-52
2021/12/19 07:46:22;;;;;;;49.33;15.60;;;;;;;13.32;100.00;103175.19;5095942;28;20465;-50
2021/12/19 07:48:48;;;;;;;38.97;15.50;;;;;;;13.41;100.00;103166.16;5095703;28;20043;-52
2021/12/19 07:51:13;;;;;;;34.13;13.60;;;;;;;13.48;100.00;103164.56;5077801;28;20291;-52
2021/12/19 07:53:39;;;;;;;38.83;14.63;;;;;;;13.56;100.00;103161.06;5095847;28;20031;-52
2021/12/19 07:56:05;;;;;;;28.42;11.25;;;;;;;13.05;100.00;103167.06;5095955;28;20047;-52
2021/12/19 07:58:30;;;;;;;31.47;11.33;;;;;;;13.46;100.00;103158.50;5095880;28;20024;-50
2021/12/19 08:00:56;;;;;;;33.05;13.48;;;;;;;13.43;100.00;103158.81;5077323;28;20441;-50
2021/12/19 08:03:21;;;;;;;32.85;12.13;;;;;;;13.29;100.00;103154.81;5077847;28;20035;-50
2021/12/19 08:05:48;;;;;;;39.33;13.20;;;;;;;13.44;100.00;103149.75;5077546;28;20450;-53
2021/12/19 08:08:17;;;;;;;28.55;11.15;;;;;;;13.64;100.00;103156.78;5095628;28;20024;-47
2021/12/19 08:13:09;;;;;;;25.80;9.43;;;;;;;13.05;100.00;103163.56;5095518;28;20423;-47
2021/12/19 08:15:36;;;;;;;25.13;9.17;;;;;;;13.50;100.00;103159.03;5095502;28;20042;-49
2021/12/19 08:18:03;;;;;;;22.25;9.25;;;;;;;13.66;100.00;103157.47;5095067;28;20048;-52
2021/12/19 08:20:29;;;;;;;18.63;7.60;;;;;;;13.33;100.00;103158.88;5095002;28;20028;-52
2021/12/19 08:22:56;;;;;;;22.38;8.18;;;;;;;13.54;100.00;103164.94;5095388;28;20024;-47
2021/12/19 08:25:22;;;;;;;18.10;6.75;;;;;;;13.76;100.00;103164.41;5077281;28;20028;-50
2021/12/19 08:27:48;;;;;;;;;;;;;;;13.65;100.00;103161.97;5095624;28;20468;-50
2021/12/19 08:30:15;;;;;;;12.83;5.03;;;;;;;13.64;100.00;103152.22;5095755;28;19908;-49
2021/12/19 08:32:42;;;;;;;13.88;6.20;;;;;;;13.73;100.00;103158.50;5077010;28;20027;-53
2021/12/19 08:35:09;;;;;;;14.15;5.80;;;;;;;13.75;100.00;103160.03;5077108;28;20036;-50
2021/12/19 08:37:35;;;;;;;16.55;6.13;;;;;;;13.70;100.00;103165.03;5094840;28;20028;-54
2021/12/19 08:40:00;;;;;;;14.93;6.57;;;;;;;13.70;100.00;103162.34;5094992;28;20032;-50
2021/12/19 08:42:28;;;;;;;15.55;5.65;;;;;;;13.47;100.00;103153.97;5095035;28;20036;-52
2021/12/19 08:44:54;;;;;;;12.25;5.25;;;;;;;13.56;100.00;103150.31;5094417;28;20044;-48
2021/12/19 08:47:20;;;;;;;13.88;5.15;;;;;;;13.45;100.00;103150.59;5060647;28;20040;-48
2021/12/19 08:49:45;;;;;;;12.68;4.85;;;;;;;13.72;100.00;103154.13;5095216;28;20040;-52
2021/12/19 08:52:12;;;;;;;13.00;5.50;;;;;;;13.81;100.00;103150.47;5094833;28;20036;-55
2021/12/19 08:54:38;;;;;;;12.70;4.82;;;;;;;13.76;100.00;103152.78;5094594;28;20081;-51
2021/12/19 08:57:03;;;;;;;10.85;4.35;;;;;;;13.88;100.00;103140.75;5060785;28;20128;-52
2021/12/19 08:59:29;;;;;;;13.32;4.40;;;;;;;13.87;100.00;103138.22;5076464;28;20036;-53
2021/12/19 09:01:59;;;;;;;9.90;4.13;;;;;;;13.88;100.00;103139.91;5076584;28;20028;-47
2021/12/19 09:04:24;;;;;;;8.03;3.83;;;;;;;13.73;100.00;103147.75;5094045;28;20035;-51
2021/12/19 09:06:50;;;;;;;11.73;3.43;;;;;;;13.79;100.00;103143.56;5094168;28;20575;-51
2021/12/19 09:09:16;;;;;;;7.40;3.83;;;;;;;13.89;100.00;103138.91;5075285;28;20473;-52
2021/12/19 09:11:42;;;;;;;9.30;3.63;;;;;;;13.84;100.00;103152.00;5076100;28;20729;-54
2021/12/19 09:14:08;;;;;;;7.95;3.88;;;;;;;13.93;100.00;103139.44;5075511;28;20430;-51
2021/12/19 09:16:33;;;;;;;6.97;3.30;;;;;;;13.82;100.00;103140.56;5075776;28;20042;-51
2021/12/19 09:18:59;;;;;;;9.05;2.95;;;;;;;13.88;100.00;103140.75;5093890;28;20044;-54
2021/12/19 09:21:25;;;;;;;5.80;2.78;;;;;;;14.07;100.00;103138.84;5093970;28;20036;-53
2021/12/19 09:23:50;;;;;;;8.52;2.85;;;;;;;14.17;100.00;103136.84;5094216;28;20039;-54
2021/12/19 09:26:16;;;;;;;5.85;2.50;;;;;;;14.09;100.00;103136.81;5093719;28;20097;-55
2021/12/19 09:28:41;;;;;;;5.60;2.00;;;;;;;13.64;100.00;103143.31;5093944;28;20042;-53
2021/12/19 09:31:07;;;;;;;4.47;1.70;;;;;;;13.82;100.00;103138.69;5094152;28;20036;-51
2021/12/19 09:33:32;;;;;;;3.13;1.77;;;;;;;13.77;100.00;103151.78;5058955;28;20368;-49
2021/12/19 09:35:59;;;;;;;3.30;1.73;;;;;;;13.70;100.00;103148.88;5093469;28;20482;-49
2021/12/19 09:38:27;;;;;;;4.17;1.60;;;;;;;14.00;100.00;103144.00;5093800;28;20071;-51
2021/12/19 09:41:00;;;;;;;2.57;1.73;;;;;;;14.10;100.00;103148.41;5075289;28;20287;-51
2021/12/19 09:43:42;;;;;;;4.47;1.60;;;;;;;13.98;100.00;103142.47;5093771;28;20288;-52
2021/12/19 09:46:22;;;;;;;2.78;1.48;;;;;;;13.78;100.00;103148.09;5093080;28;20040;-51
2021/12/19 09:48:49;;;;;;;4.00;1.77;;;;;;;13.50;100.00;103142.91;5075317;28;20059;-50
2021/12/19 09:51:17;;;;;;;3.92;1.50;;;;;;;13.66;100.00;103147.53;5093105;28;20253;-53
2021/12/19 09:53:43;;;;;;;2.50;1.33;;;;;;;14.05;100.00;103140.81;5093618;28;20064;-48
2021/12/19 09:56:10;;;;;;;2.92;1.48;;;;;;;14.01;100.00;103150.22;5093208;28;20252;-48
2021/12/19 09:58:37;;;;;;;5.03;1.10;;;;;;;14.15;100.00;103146.91;5093025;28;20442;-51
2021/12/19 10:01:05;;;;;;;1.75;1.20;;;;;;;14.14;100.00;103142.53;5074659;28;20760;-52
2021/12/19 10:03:32;;;;;;;2.03;1.20;;;;;;;14.03;100.00;103141.00;5093022;28;20094;-47
2021/12/19 10:06:19;;;;;;;1.80;0.90;;;;;;;13.85;100.00;103140.22;5092023;28;20252;-49
2021/12/19 10:08:48;;;;;;;3.25;1.50;;;;;;;13.91;100.00;103145.81;5075101;28;20032;-49
2021/12/19 10:12:12;;;;;;;2.50;1.07;;;;;;;14.14;100.00;103139.84;5075338;28;20417;-52
2021/12/19 10:14:34;;;;;;;2.90;1.30;;;;;;;14.18;100.00;103129.59;5070729;28;20272;-49
2021/12/19 10:17:03;;;;;;;1.33;0.83;;;;;;;14.28;100.00;103126.75;5058716;28;20579;-49
2021/12/19 10:19:51;;;;;;;2.63;1.40;;;;;;;14.46;100.00;103127.47;5092921;28;20279;-48
2021/12/19 10:22:32;;;;;;;2.03;0.77;;;;;;;14.30;100.00;103122.06;5093043;28;20260;-49
2021/12/19 10:25:23;;;;;;;1.33;0.80;;;;;;;14.35;100.00;103119.72;5092936;28;20260;-52
2021/12/19 10:27:50;;;;;;;1.10;0.80;;;;;;;14.54;100.00;103125.81;5093518;28;20272;-54
2021/12/19 10:30:46;;;;;;;4.20;1.00;;;;;;;14.55;100.00;103119.44;5058576;28;20800;-51
2021/12/19 10:33:15;;;;;;;2.37;1.10;;;;;;;14.70;100.00;103120.44;5092695;28;20265;-50
2021/12/19 10:36:01;;;;;;;5.77;1.10;;;;;;;14.23;100.00;103116.50;5092640;28;20375;-47
2021/12/19 10:38:32;;;;;;;1.83;0.90;;;;;;;14.35;100.00;103114.34;5074996;28;20290;-53
2021/12/19 10:41:01;;;;;;;2.63;1.17;;;;;;;14.46;100.00;103110.50;5092733;28;20291;-53
2021/12/19 10:43:30;;;;;;;2.37;1.10;;;;;;;14.46;100.00;103116.72;5092841;28;20252;-52
2021/12/19 10:45:59;;;;;;;3.70;1.13;;;;;;;14.69;100.00;103109.84;5092684;28;20277;-49
2021/12/19 10:48:34;;;;;;;2.55;0.95;;;;;;;14.38;100.00;103103.25;5092775;28;20347;-51
2021/12/19 10:51:09;;;;;;;5.00;1.23;;;;;;;14.43;100.00;103090.13;5074449;28;20036;-49
2021/12/19 10:54:07;;;;;;;3.00;1.40;;;;;;;14.61;100.00;103092.66;5092585;28;20322;-48
2021/12/19 10:56:37;;;;;;;9.77;1.50;;;;;;;14.46;100.00;103089.78;5072716;28;20746;-51
2021/12/19 10:59:11;;;;;;;1.40;0.83;;;;;;;14.49;100.00;103076.00;5092813;28;20051;-48
2021/12/19 11:01:39;;;;;;;4.93;1.70;;;;;;;14.62;100.00;103074.66;5075170;28;20280;-49
2021/12/19 11:04:10;;;;;;;3.80;1.90;;;;;;;14.51;100.00;103069.59;5092658;28;20279;-51
2021/12/19 11:06:41;;;;;;;8.40;2.10;;;;;;;14.42;100.00;103066.91;5092825;28;20322;-52
2021/12/19 11:09:15;;;;;;;5.93;1.97;;;;;;;14.38;100.00;103062.88;5074429;28;20288;-54
2021/12/19 11:11:48;;;;;;;6.93;3.10;;;;;;;13.59;100.00;103055.09;5092652;28;20261;-51
2021/12/19 11:14:17;;;;;;;7.53;3.00;;;;;;;13.81;100.00;103048.25;5092222;28;20276;-51
2021/12/19 11:16:43;;;;;;;7.63;3.03;;;;;;;14.19;100.00;103051.41;5094059;28;20345;-51
2021/12/19 11:19:09;;;;;;;10.77;3.40;;;;;;;14.32;100.00;103047.41;5095636;28;20276;-51
2021/12/19 11:21:35;;;;;;;8.05;2.80;;;;;;;14.39;100.00;103043.03;5095841;28;20453;-50
2021/12/19 11:24:05;;;;;;;14.75;3.92;;;;;;;14.32;100.00;103050.09;5096485;28;20044;-52
2021/12/19 11:26:31;;;;;;;20.45;4.35;;;;;;;14.15;100.00;103033.91;5095771;28;20119;-50
2021/12/19 11:28:59;;;;;;;6.63;2.60;;;;;;;14.12;100.00;103033.38;5078427;28;20024;-52
2021/12/19 11:31:31;;;;;;;8.07;3.13;;;;;;;14.37;100.00;103036.09;5095563;28;20034;-50
2021/12/19 11:34:16;;;;;;;10.50;3.07;;;;;;;14.02;100.00;103029.00;5095968;28;20262;-54
2021/12/19 11:36:46;;;;;;;10.87;3.57;;;;;;;14.20;100.00;103030.72;5095544;28;20338;-53
2021/12/19 11:39:14;;;;;;;10.88;3.10;;;;;;;14.39;100.00;103029.56;5060907;28;20260;-53
2021/12/19 11:42:00;;;;;;;9.43;3.33;;;;;;;14.32;100.00;103028.56;5095433;28;20035;-48
2021/12/19 11:45:02;;;;;;;10.83;3.33;;;;;;;14.32;100.00;103029.38;5095452;28;20449;-48
2021/12/19 11:47:45;;;;;;;10.93;3.73;;;;;;;14.23;100.00;103024.16;5077865;28;20278;-52
2021/12/19 11:50:28;;;;;;;14.10;3.70;;;;;;;14.34;100.00;103015.75;5077440;28;20269;-52
2021/12/19 11:53:16;;;;;;;11.85;3.47;;;;;;;14.31;100.00;103022.31;5096004;28;20425;-51
2021/12/19 11:55:44;;;;;;;8.07;2.95;;;;;;;14.26;100.00;103013.91;5077100;28;20043;-53
2021/12/19 11:58:12;;;;;;;17.27;3.80;;;;;;;14.43;100.00;103013.94;5095337;28;20047;-53
2021/12/19 12:00:51;;;;;;;10.57;3.83;;;;;;;13.96;100.00;103008.16;5095242;28;20155;-50
2021/12/19 12:03:21;;;;;;;10.15;3.28;;;;;;;13.99;100.00;103006.97;5075946;28;20369;-50
2021/12/19 12:05:50;;;;;;;8.13;3.23;;;;;;;13.93;100.00;102991.50;5095043;28;20499;-49
2021/12/19 12:08:23;;;;;;;10.00;3.88;;;;;;;13.96;100.00;102996.53;5095010;28;20244;-50
2021/12/19 12:10:55;;;;;;;9.00;3.17;;;;;;;13.85;100.00;102992.31;5095059;28;20028;-48
2021/12/19 12:13:30;;;;;;;12.70;4.10;;;;;;;14.11;100.00;102994.03;5076814;28;20032;-52
2021/12/19 12:18:43;;;;;;;19.97;4.90;;;;;;;14.02;100.00;102990.47;5080858;28;20137;-52
2021/12/19 12:21:18;;;;;;;13.13;5.00;;;;;;;14.12;100.00;102983.13;5094768;28;20273;-52
2021/12/19 12:23:58;;;;;;;10.90;4.43;;;;;;;14.31;100.00;102981.94;5076642;28;20737;-52